sensor_id;sensor_type;location;lat;lon;timestamp;temperature;humidity
12746;DHT22;6437;53.686;10.030;2023-04-03T00:00:58;5.10;99.90
12746;DHT22;6437;53.686;10.030;2023-04-03T00:03:00;4.20;99.90
12746;DHT22;6437;53.686;10.030;2023-04-03T00:05:01;5.40;99.90
12746;DHT22;6437;53.686;10.030;2023-04-03T00:07:05;5.40;99.90
12746;DHT22;6437;53.686;10.030;2023-04-03T00:09:06;4.90;99.90
12746;DHT22;6437;53.686;10.030;2023-04-03T00:11:09;5.10;99.90
12746;DHT22;6437;53.686;10.030;2023-04-03T00:13:11;4.20;99.90
12746;DHT22;6437;53.686;10.030;2023-04-03T00:15:14;4.20;99.90
12746;DHT22;6437;53.686;10.030;2023-04-03T00:17:16;4.20;99.90
12746;DHT22;6437;53.686;10.030;2023-04-03T00:19:18;4.10;99.90
12746;DHT22;6437;53.686;10.030;2023-04-03T00:21:20;4.10;99.90
12746;DHT22;6437;53.686;10.030;2023-04-03T00:23:21;4.00;99.90
12746;DHT22;6437;53.686;10.030;2023-04-03T00:25:24;4.10;99.90
12746;DHT22;6437;53.686;10.030;2023-04-03T00:27:26;3.50;99.90
12746;DHT22;6437;53.686;10.030;2023-04-03T00:29:28;5.10;99.90
12746;DHT22;6437;53.686;10.030;2023-04-03T00:31:32;4.60;99.90
12746;DHT22;6437;53.686;10.030;2023-04-03T00:33:34;4.60;99.90
12746;DHT22;6437;53.686;10.030;2023-04-03T00:35:36;4.40;99.90
12746;DHT22;6437;53.686;10.030;2023-04-03T00:37:38;4.00;99.90
12746;DHT22;6437;53.686;10.030;2023-04-03T00:39:40;3.80;99.90
12746;DHT22;6437;53.686;10.030;2023-04-03T00:41:42;3.90;99.90
12746;DHT22;6437;53.686;10.030;2023-04-03T00:43:44;3.80;99.90
12746;DHT22;6437;53.686;10.030;2023-04-03T00:45:46;3.90;99.90
12746;DHT22;6437;53.686;10.030;2023-04-03T00:47:50;5.30;99.90
12746;DHT22;6437;53.686;10.030;2023-04-03T00:49:53;4.60;99.90
12746;DHT22;6437;53.686;10.030;2023-04-03T00:52:16;5.80;99.90
12746;DHT22;6437;53.686;10.030;2023-04-03T00:54:19;5.50;99.90
12746;DHT22;6437;53.686;10.030;2023-04-03T00:56:24;3.80;99.90
12746;DHT22;6437;53.686;10.030;2023-04-03T00:58:33;5.70;99.90
12746;DHT22;6437;53.686;10.030;2023-04-03T01:00:37;4.50;99.90
12746;DHT22;6437;53.686;10.030;2023-04-03T01:02:40;3.90;99.90
12746;DHT22;6437;53.686;10.030;2023-04-03T01:04:44;4.00;99.90
12746;DHT22;6437;53.686;10.030;2023-04-03T01:06:47;3.70;99.90
12746;DHT22;6437;53.686;10.030;2023-04-03T01:08:49;3.70;99.90
12746;DHT22;6437;53.686;10.030;2023-04-03T01:10:51;3.80;99.90
12746;DHT22;6437;53.686;10.030;2023-04-03T01:12:54;3.80;99.90
12746;DHT22;6437;53.686;10.030;2023-04-03T01:14:58;4.80;99.90
12746;DHT22;6437;53.686;10.030;2023-04-03T01:17:00;5.40;99.90
12746;DHT22;6437;53.686;10.030;2023-04-03T01:19:03;3.80;99.90
12746;DHT22;6437;53.686;10.030;2023-04-03T01:23:43;3.80;99.90
12746;DHT22;6437;53.686;10.030;2023-04-03T01:25:52;3.70;99.90
12746;DHT22;6437;53.686;10.030;2023-04-03T01:27:54;3.70;99.90
12746;DHT22;6437;53.686;10.030;2023-04-03T01:29:57;3.70;99.90
12746;DHT22;6437;53.686;10.030;2023-04-03T01:32:02;3.60;99.90
12746;DHT22;6437;53.686;10.030;2023-04-03T01:34:04;3.50;99.90
12746;DHT22;6437;53.686;10.030;2023-04-03T01:36:07;3.60;99.90
12746;DHT22;6437;53.686;10.030;2023-04-03T01:38:10;3.70;99.90
12746;DHT22;6437;53.686;10.030;2023-04-03T01:40:11;4.20;99.90
12746;DHT22;6437;53.686;10.030;2023-04-03T01:42:13;3.50;99.90
12746;DHT22;6437;53.686;10.030;2023-04-03T01:44:16;4.60;99.90
12746;DHT22;6437;53.686;10.030;2023-04-03T01:46:19;4.60;99.90
12746;DHT22;6437;53.686;10.030;2023-04-03T01:48:22;4.80;99.90
12746;DHT22;6437;53.686;10.030;2023-04-03T01:50:24;3.70;99.90
12746;DHT22;6437;53.686;10.030;2023-04-03T01:52:27;4.30;99.90
12746;DHT22;6437;53.686;10.030;2023-04-03T01:54:28;3.50;99.90
12746;DHT22;6437;53.686;10.030;2023-04-03T01:56:31;3.60;99.90
12746;DHT22;6437;53.686;10.030;2023-04-03T01:58:33;3.60;99.90
12746;DHT22;6437;53.686;10.030;2023-04-03T02:00:34;3.00;99.90
12746;DHT22;6437;53.686;10.030;2023-04-03T02:02:36;3.70;99.90
12746;DHT22;6437;53.686;10.030;2023-04-03T02:04:40;4.40;99.90
12746;DHT22;6437;53.686;10.030;2023-04-03T02:06:42;4.60;99.90
12746;DHT22;6437;53.686;10.030;2023-04-03T02:08:43;3.50;99.90
12746;DHT22;6437;53.686;10.030;2023-04-03T02:10:47;5.40;99.90
12746;DHT22;6437;53.686;10.030;2023-04-03T02:12:49;3.60;99.90
12746;DHT22;6437;53.686;10.030;2023-04-03T02:14:51;3.50;99.90
12746;DHT22;6437;53.686;10.030;2023-04-03T02:16:53;3.50;99.90
12746;DHT22;6437;53.686;10.030;2023-04-03T02:18:55;3.40;99.90
12746;DHT22;6437;53.686;10.030;2023-04-03T02:20:59;3.30;99.90
12746;DHT22;6437;53.686;10.030;2023-04-03T02:23:01;4.60;99.90
12746;DHT22;6437;53.686;10.030;2023-04-03T02:25:03;3.40;99.90
12746;DHT22;6437;53.686;10.030;2023-04-03T02:27:05;3.40;99.90
12746;DHT22;6437;53.686;10.030;2023-04-03T02:29:07;3.50;99.90
12746;DHT22;6437;53.686;10.030;2023-04-03T02:31:09;3.40;99.90
12746;DHT22;6437;53.686;10.030;2023-04-03T02:33:11;4.40;99.90
12746;DHT22;6437;53.686;10.030;2023-04-03T02:35:13;3.10;99.90
12746;DHT22;6437;53.686;10.030;2023-04-03T02:37:17;3.20;99.90
12746;DHT22;6437;53.686;10.030;2023-04-03T02:39:19;3.30;99.90
12746;DHT22;6437;53.686;10.030;2023-04-03T02:41:21;3.50;99.90
12746;DHT22;6437;53.686;10.030;2023-04-03T02:43:23;3.30;99.90
12746;DHT22;6437;53.686;10.030;2023-04-03T02:45:25;3.30;99.90
12746;DHT22;6437;53.686;10.030;2023-04-03T02:47:27;4.50;99.90
12746;DHT22;6437;53.686;10.030;2023-04-03T02:49:29;3.30;99.90
12746;DHT22;6437;53.686;10.030;2023-04-03T02:51:33;3.20;99.90
12746;DHT22;6437;53.686;10.030;2023-04-03T02:53:37;3.20;99.90
12746;DHT22;6437;53.686;10.030;2023-04-03T02:55:38;3.20;99.90
12746;DHT22;6437;53.686;10.030;2023-04-03T02:57:40;4.30;99.90
12746;DHT22;6437;53.686;10.030;2023-04-03T02:59:42;3.00;99.90
12746;DHT22;6437;53.686;10.030;2023-04-03T03:01:45;3.40;99.90
12746;DHT22;6437;53.686;10.030;2023-04-03T03:03:47;2.90;99.90
12746;DHT22;6437;53.686;10.030;2023-04-03T03:05:49;5.50;99.90
12746;DHT22;6437;53.686;10.030;2023-04-03T03:07:51;3.30;99.90
12746;DHT22;6437;53.686;10.030;2023-04-03T03:09:54;3.80;99.90
12746;DHT22;6437;53.686;10.030;2023-04-03T03:11:56;4.30;99.90
12746;DHT22;6437;53.686;10.030;2023-04-03T03:13:58;3.20;99.90
12746;DHT22;6437;53.686;10.030;2023-04-03T03:16:00;3.30;99.90
12746;DHT22;6437;53.686;10.030;2023-04-03T03:18:02;3.30;99.90
12746;DHT22;6437;53.686;10.030;2023-04-03T03:20:05;3.30;99.90
12746;DHT22;6437;53.686;10.030;2023-04-03T03:22:07;3.30;99.90
12746;DHT22;6437;53.686;10.030;2023-04-03T03:24:09;2.90;99.90
12746;DHT22;6437;53.686;10.030;2023-04-03T03:26:13;4.80;99.90
12746;DHT22;6437;53.686;10.030;2023-04-03T03:28:15;3.30;99.90
12746;DHT22;6437;53.686;10.030;2023-04-03T03:30:19;4.80;99.90
12746;DHT22;6437;53.686;10.030;2023-04-03T03:32:21;3.20;99.90
12746;DHT22;6437;53.686;10.030;2023-04-03T03:34:23;4.60;99.90
12746;DHT22;6437;53.686;10.030;2023-04-03T03:36:24;4.60;99.90
12746;DHT22;6437;53.686;10.030;2023-04-03T03:38:27;3.10;99.90
12746;DHT22;6437;53.686;10.030;2023-04-03T03:40:29;3.30;99.90
12746;DHT22;6437;53.686;10.030;2023-04-03T03:42:32;3.20;99.90
12746;DHT22;6437;53.686;10.030;2023-04-03T03:44:35;3.20;99.90
12746;DHT22;6437;53.686;10.030;2023-04-03T03:46:37;3.70;99.90
12746;DHT22;6437;53.686;10.030;2023-04-03T03:48:39;3.10;99.90
12746;DHT22;6437;53.686;10.030;2023-04-03T03:50:44;3.20;99.90
12746;DHT22;6437;53.686;10.030;2023-04-03T03:52:47;3.10;99.90
12746;DHT22;6437;53.686;10.030;2023-04-03T03:54:50;4.20;99.90
12746;DHT22;6437;53.686;10.030;2023-04-03T03:56:52;5.40;99.90
12746;DHT22;6437;53.686;10.030;2023-04-03T03:58:57;4.50;99.90
12746;DHT22;6437;53.686;10.030;2023-04-03T04:01:02;3.10;99.90
12746;DHT22;6437;53.686;10.030;2023-04-03T04:03:04;5.00;99.90
12746;DHT22;6437;53.686;10.030;2023-04-03T04:05:06;3.20;99.90
12746;DHT22;6437;53.686;10.030;2023-04-03T04:07:09;3.10;99.90
12746;DHT22;6437;53.686;10.030;2023-04-03T04:09:12;3.00;99.90
12746;DHT22;6437;53.686;10.030;2023-04-03T04:11:17;3.00;99.90
12746;DHT22;6437;53.686;10.030;2023-04-03T04:13:19;2.90;99.90
12746;DHT22;6437;53.686;10.030;2023-04-03T04:15:24;3.10;99.90
12746;DHT22;6437;53.686;10.030;2023-04-03T04:17:28;2.90;99.90
12746;DHT22;6437;53.686;10.030;2023-04-03T04:19:30;2.80;99.90
12746;DHT22;6437;53.686;10.030;2023-04-03T04:21:33;3.50;99.90
12746;DHT22;6437;53.686;10.030;2023-04-03T04:23:35;4.20;99.90
12746;DHT22;6437;53.686;10.030;2023-04-03T04:25:37;2.90;99.90
12746;DHT22;6437;53.686;10.030;2023-04-03T04:27:39;3.30;99.90
12746;DHT22;6437;53.686;10.030;2023-04-03T04:29:41;3.00;99.90
12746;DHT22;6437;53.686;10.030;2023-04-03T04:31:44;3.20;99.90
12746;DHT22;6437;53.686;10.030;2023-04-03T04:33:46;3.00;99.90
12746;DHT22;6437;53.686;10.030;2023-04-03T04:35:50;2.80;99.90
12746;DHT22;6437;53.686;10.030;2023-04-03T04:37:52;2.90;99.90
12746;DHT22;6437;53.686;10.030;2023-04-03T04:39:54;2.80;99.90
12746;DHT22;6437;53.686;10.030;2023-04-03T04:41:56;3.00;99.90
12746;DHT22;6437;53.686;10.030;2023-04-03T04:43:58;3.80;99.90
12746;DHT22;6437;53.686;10.030;2023-04-03T04:46:01;2.90;99.90
12746;DHT22;6437;53.686;10.030;2023-04-03T04:48:05;3.30;99.90
12746;DHT22;6437;53.686;10.030;2023-04-03T04:50:07;3.10;99.90
12746;DHT22;6437;53.686;10.030;2023-04-03T04:52:09;3.10;99.90
12746;DHT22;6437;53.686;10.030;2023-04-03T04:54:12;3.10;99.90
12746;DHT22;6437;53.686;10.030;2023-04-03T04:56:16;2.90;99.90
12746;DHT22;6437;53.686;10.030;2023-04-03T04:58:19;3.30;99.90
12746;DHT22;6437;53.686;10.030;2023-04-03T05:00:23;5.10;99.90
12746;DHT22;6437;53.686;10.030;2023-04-03T05:02:25;3.10;99.90
12746;DHT22;6437;53.686;10.030;2023-04-03T05:04:30;3.00;99.90
12746;DHT22;6437;53.686;10.030;2023-04-03T05:06:32;3.10;99.90
12746;DHT22;6437;53.686;10.030;2023-04-03T05:08:35;3.10;99.90
12746;DHT22;6437;53.686;10.030;2023-04-03T05:10:37;3.00;99.90
12746;DHT22;6437;53.686;10.030;2023-04-03T05:12:41;3.70;99.90
12746;DHT22;6437;53.686;10.030;2023-04-03T05:14:43;4.60;99.90
12746;DHT22;6437;53.686;10.030;2023-04-03T05:16:45;3.10;99.90
12746;DHT22;6437;53.686;10.030;2023-04-03T05:18:48;3.10;99.90
12746;DHT22;6437;53.686;10.030;2023-04-03T05:20:51;2.90;99.90
12746;DHT22;6437;53.686;10.030;2023-04-03T05:22:53;3.90;99.90
12746;DHT22;6437;53.686;10.030;2023-04-03T05:24:55;3.10;99.90
12746;DHT22;6437;53.686;10.030;2023-04-03T05:26:57;3.40;99.90
12746;DHT22;6437;53.686;10.030;2023-04-03T05:28:58;1.60;99.90
12746;DHT22;6437;53.686;10.030;2023-04-03T05:31:01;4.60;99.90
12746;DHT22;6437;53.686;10.030;2023-04-03T05:33:03;3.10;99.90
12746;DHT22;6437;53.686;10.030;2023-04-03T05:35:16;3.10;99.90
12746;DHT22;6437;53.686;10.030;2023-04-03T05:37:22;4.00;99.90
12746;DHT22;6437;53.686;10.030;2023-04-03T05:39:24;3.10;99.90
12746;DHT22;6437;53.686;10.030;2023-04-03T05:41:26;4.30;99.90
12746;DHT22;6437;53.686;10.030;2023-04-03T05:43:33;3.00;99.90
12746;DHT22;6437;53.686;10.030;2023-04-03T05:45:38;3.20;99.90
12746;DHT22;6437;53.686;10.030;2023-04-03T05:47:40;2.80;99.90
12746;DHT22;6437;53.686;10.030;2023-04-03T05:49:42;4.60;99.90
12746;DHT22;6437;53.686;10.030;2023-04-03T05:51:47;3.10;99.90
12746;DHT22;6437;53.686;10.030;2023-04-03T05:53:58;3.20;99.90
12746;DHT22;6437;53.686;10.030;2023-04-03T05:56:01;4.90;99.90
12746;DHT22;6437;53.686;10.030;2023-04-03T05:58:03;3.10;99.90
12746;DHT22;6437;53.686;10.030;2023-04-03T06:00:06;3.30;99.90
12746;DHT22;6437;53.686;10.030;2023-04-03T06:02:11;3.20;99.90
12746;DHT22;6437;53.686;10.030;2023-04-03T06:04:14;3.20;99.90
12746;DHT22;6437;53.686;10.030;2023-04-03T06:06:16;3.10;99.90
12746;DHT22;6437;53.686;10.030;2023-04-03T06:08:24;3.30;99.90
12746;DHT22;6437;53.686;10.030;2023-04-03T06:10:30;5.00;99.90
12746;DHT22;6437;53.686;10.030;2023-04-03T06:12:48;3.40;99.90
12746;DHT22;6437;53.686;10.030;2023-04-03T06:14:50;3.40;99.90
12746;DHT22;6437;53.686;10.030;2023-04-03T06:16:53;5.00;99.90
12746;DHT22;6437;53.686;10.030;2023-04-03T06:18:56;5.20;99.90
12746;DHT22;6437;53.686;10.030;2023-04-03T06:20:57;3.50;99.90
12746;DHT22;6437;53.686;10.030;2023-04-03T06:23:01;3.50;99.90
12746;DHT22;6437;53.686;10.030;2023-04-03T06:25:03;3.50;99.90
12746;DHT22;6437;53.686;10.030;2023-04-03T06:27:06;3.60;99.90
12746;DHT22;6437;53.686;10.030;2023-04-03T06:29:09;3.60;99.90
12746;DHT22;6437;53.686;10.030;2023-04-03T06:31:10;3.70;99.90
12746;DHT22;6437;53.686;10.030;2023-04-03T06:33:12;3.70;99.90
12746;DHT22;6437;53.686;10.030;2023-04-03T06:35:15;3.80;99.90
12746;DHT22;6437;53.686;10.030;2023-04-03T06:37:18;3.80;99.90
12746;DHT22;6437;53.686;10.030;2023-04-03T06:39:21;3.80;99.90
12746;DHT22;6437;53.686;10.030;2023-04-03T06:41:24;3.90;99.90
12746;DHT22;6437;53.686;10.030;2023-04-03T06:43:28;3.90;99.90
12746;DHT22;6437;53.686;10.030;2023-04-03T06:45:31;4.00;99.90
12746;DHT22;6437;53.686;10.030;2023-04-03T06:47:33;4.70;99.90
12746;DHT22;6437;53.686;10.030;2023-04-03T06:49:35;4.00;99.90
12746;DHT22;6437;53.686;10.030;2023-04-03T06:51:37;3.60;99.90
12746;DHT22;6437;53.686;10.030;2023-04-03T06:53:39;5.50;99.90
12746;DHT22;6437;53.686;10.030;2023-04-03T06:55:41;4.00;99.90
12746;DHT22;6437;53.686;10.030;2023-04-03T06:57:44;6.10;99.90
12746;DHT22;6437;53.686;10.030;2023-04-03T06:59:47;5.50;99.90
12746;DHT22;6437;53.686;10.030;2023-04-03T07:01:50;4.40;99.90
12746;DHT22;6437;53.686;10.030;2023-04-03T07:03:52;5.90;99.90
12746;DHT22;6437;53.686;10.030;2023-04-03T07:05:54;4.20;99.90
12746;DHT22;6437;53.686;10.030;2023-04-03T07:07:56;4.30;99.90
12746;DHT22;6437;53.686;10.030;2023-04-03T07:09:58;4.10;99.90
12746;DHT22;6437;53.686;10.030;2023-04-03T07:12:00;4.40;99.90
12746;DHT22;6437;53.686;10.030;2023-04-03T07:14:02;4.50;99.90
12746;DHT22;6437;53.686;10.030;2023-04-03T07:16:08;4.50;99.90
12746;DHT22;6437;53.686;10.030;2023-04-03T07:18:10;4.60;99.90
12746;DHT22;6437;53.686;10.030;2023-04-03T07:20:12;4.40;99.90
12746;DHT22;6437;53.686;10.030;2023-04-03T07:22:16;4.70;99.90
12746;DHT22;6437;53.686;10.030;2023-04-03T07:24:18;4.70;99.90
12746;DHT22;6437;53.686;10.030;2023-04-03T07:26:20;4.60;99.90
12746;DHT22;6437;53.686;10.030;2023-04-03T07:28:23;4.80;99.90
12746;DHT22;6437;53.686;10.030;2023-04-03T07:30:25;4.80;99.90
12746;DHT22;6437;53.686;10.030;2023-04-03T07:32:29;4.90;99.90
12746;DHT22;6437;53.686;10.030;2023-04-03T07:34:31;4.80;99.90
12746;DHT22;6437;53.686;10.030;2023-04-03T07:36:33;4.90;99.90
12746;DHT22;6437;53.686;10.030;2023-04-03T07:38:36;5.00;99.90
12746;DHT22;6437;53.686;10.030;2023-04-03T07:40:39;5.00;99.90
12746;DHT22;6437;53.686;10.030;2023-04-03T07:42:41;5.00;99.90
12746;DHT22;6437;53.686;10.030;2023-04-03T07:44:43;5.10;99.90
12746;DHT22;6437;53.686;10.030;2023-04-03T07:46:45;5.10;99.90
12746;DHT22;6437;53.686;10.030;2023-04-03T07:48:48;4.50;99.90
12746;DHT22;6437;53.686;10.030;2023-04-03T07:50:50;5.20;99.90
12746;DHT22;6437;53.686;10.030;2023-04-03T07:52:56;6.10;99.90
12746;DHT22;6437;53.686;10.030;2023-04-03T07:54:58;7.00;99.90
12746;DHT22;6437;53.686;10.030;2023-04-03T07:57:00;5.30;99.90
12746;DHT22;6437;53.686;10.030;2023-04-03T07:59:02;5.40;99.90
12746;DHT22;6437;53.686;10.030;2023-04-03T08:01:04;5.50;99.90
12746;DHT22;6437;53.686;10.030;2023-04-03T08:03:08;5.50;99.90
12746;DHT22;6437;53.686;10.030;2023-04-03T08:05:13;5.50;99.90
12746;DHT22;6437;53.686;10.030;2023-04-03T08:07:14;5.50;99.90
12746;DHT22;6437;53.686;10.030;2023-04-03T08:09:16;5.60;99.90
12746;DHT22;6437;53.686;10.030;2023-04-03T08:11:26;5.60;99.90
12746;DHT22;6437;53.686;10.030;2023-04-03T08:13:28;5.60;99.90
12746;DHT22;6437;53.686;10.030;2023-04-03T08:15:30;6.30;99.90
12746;DHT22;6437;53.686;10.030;2023-04-03T08:17:32;5.80;99.90
12746;DHT22;6437;53.686;10.030;2023-04-03T08:19:34;5.80;99.90
12746;DHT22;6437;53.686;10.030;2023-04-03T08:21:39;7.90;99.90
12746;DHT22;6437;53.686;10.030;2023-04-03T08:23:42;6.10;99.90
12746;DHT22;6437;53.686;10.030;2023-04-03T08:28:41;5.90;99.90
12746;DHT22;6437;53.686;10.030;2023-04-03T08:31:18;5.90;99.90
12746;DHT22;6437;53.686;10.030;2023-04-03T08:33:38;7.00;99.90
12746;DHT22;6437;53.686;10.030;2023-04-03T08:35:41;6.00;99.90
12746;DHT22;6437;53.686;10.030;2023-04-03T08:37:47;6.10;99.90
12746;DHT22;6437;53.686;10.030;2023-04-03T08:39:49;6.80;99.90
12746;DHT22;6437;53.686;10.030;2023-04-03T08:41:51;8.30;99.90
12746;DHT22;6437;53.686;10.030;2023-04-03T08:44:13;6.20;99.90
12746;DHT22;6437;53.686;10.030;2023-04-03T08:46:17;6.00;99.90
12746;DHT22;6437;53.686;10.030;2023-04-03T08:48:23;7.00;99.90
12746;DHT22;6437;53.686;10.030;2023-04-03T08:50:31;8.40;99.90
12746;DHT22;6437;53.686;10.030;2023-04-03T08:52:37;6.50;99.90
12746;DHT22;6437;53.686;10.030;2023-04-03T08:54:51;7.00;99.90
12746;DHT22;6437;53.686;10.030;2023-04-03T08:56:55;6.40;99.90
12746;DHT22;6437;53.686;10.030;2023-04-03T08:59:00;6.50;99.90
12746;DHT22;6437;53.686;10.030;2023-04-03T09:01:10;6.40;99.90
12746;DHT22;6437;53.686;10.030;2023-04-03T09:03:18;6.50;99.90
12746;DHT22;6437;53.686;10.030;2023-04-03T09:05:32;6.50;99.90
12746;DHT22;6437;53.686;10.030;2023-04-03T09:07:42;7.50;99.90
12746;DHT22;6437;53.686;10.030;2023-04-03T09:09:45;8.60;99.90
12746;DHT22;6437;53.686;10.030;2023-04-03T09:11:57;6.50;99.90
12746;DHT22;6437;53.686;10.030;2023-04-03T09:14:09;6.50;99.90
12746;DHT22;6437;53.686;10.030;2023-04-03T09:16:20;7.60;99.90
12746;DHT22;6437;53.686;10.030;2023-04-03T09:18:30;8.20;99.90
12746;DHT22;6437;53.686;10.030;2023-04-03T09:20:45;6.70;99.90
12746;DHT22;6437;53.686;10.030;2023-04-03T09:22:47;6.80;99.90
12746;DHT22;6437;53.686;10.030;2023-04-03T09:24:55;6.70;99.90
12746;DHT22;6437;53.686;10.030;2023-04-03T09:27:05;7.90;99.90
12746;DHT22;6437;53.686;10.030;2023-04-03T09:29:18;6.80;99.90
12746;DHT22;6437;53.686;10.030;2023-04-03T09:31:23;8.70;99.90
12746;DHT22;6437;53.686;10.030;2023-04-03T09:33:25;8.00;99.90
12746;DHT22;6437;53.686;10.030;2023-04-03T09:35:29;6.90;99.90
12746;DHT22;6437;53.686;10.030;2023-04-03T09:37:40;6.90;99.90
12746;DHT22;6437;53.686;10.030;2023-04-03T09:39:51;7.00;99.90
12746;DHT22;6437;53.686;10.030;2023-04-03T09:41:59;7.00;99.90
12746;DHT22;6437;53.686;10.030;2023-04-03T09:44:17;7.10;99.90
12746;DHT22;6437;53.686;10.030;2023-04-03T09:46:28;6.60;99.90
12746;DHT22;6437;53.686;10.030;2023-04-03T09:48:30;8.40;99.90
12746;DHT22;6437;53.686;10.030;2023-04-03T09:50:33;8.70;99.90
12746;DHT22;6437;53.686;10.030;2023-04-03T09:52:35;7.20;99.90
12746;DHT22;6437;53.686;10.030;2023-04-03T09:54:41;7.20;99.90
12746;DHT22;6437;53.686;10.030;2023-04-03T09:56:49;7.50;99.90
12746;DHT22;6437;53.686;10.030;2023-04-03T09:59:12;7.30;99.90
12746;DHT22;6437;53.686;10.030;2023-04-03T10:01:29;7.40;99.90
12746;DHT22;6437;53.686;10.030;2023-04-03T10:03:35;7.40;99.90
12746;DHT22;6437;53.686;10.030;2023-04-03T10:05:40;7.40;99.90
12746;DHT22;6437;53.686;10.030;2023-04-03T10:07:43;7.40;99.90
12746;DHT22;6437;53.686;10.030;2023-04-03T10:09:47;8.10;99.90
12746;DHT22;6437;53.686;10.030;2023-04-03T10:12:03;8.10;99.90
12746;DHT22;6437;53.686;10.030;2023-04-03T10:14:16;7.50;99.90
12746;DHT22;6437;53.686;10.030;2023-04-03T10:16:19;7.50;99.90
12746;DHT22;6437;53.686;10.030;2023-04-03T10:18:30;7.60;99.90
12746;DHT22;6437;53.686;10.030;2023-04-03T10:20:36;7.60;99.90
12746;DHT22;6437;53.686;10.030;2023-04-03T10:22:46;7.70;99.90
12746;DHT22;6437;53.686;10.030;2023-04-03T10:25:00;7.70;99.90
12746;DHT22;6437;53.686;10.030;2023-04-03T10:27:05;9.60;99.90
12746;DHT22;6437;53.686;10.030;2023-04-03T10:29:21;7.90;99.90
12746;DHT22;6437;53.686;10.030;2023-04-03T10:31:28;8.20;99.90
12746;DHT22;6437;53.686;10.030;2023-04-03T10:33:43;7.90;99.90
12746;DHT22;6437;53.686;10.030;2023-04-03T10:35:57;8.90;99.90
12746;DHT22;6437;53.686;10.030;2023-04-03T10:38:06;8.00;99.90
12746;DHT22;6437;53.686;10.030;2023-04-03T10:40:19;9.30;99.90
12746;DHT22;6437;53.686;10.030;2023-04-03T10:42:28;8.70;99.90
12746;DHT22;6437;53.686;10.030;2023-04-03T10:44:49;10.10;99.90
12746;DHT22;6437;53.686;10.030;2023-04-03T10:46:55;9.30;99.90
12746;DHT22;6437;53.686;10.030;2023-04-03T10:49:08;9.10;99.90
12746;DHT22;6437;53.686;10.030;2023-04-03T10:51:23;8.40;99.90
12746;DHT22;6437;53.686;10.030;2023-04-03T10:53:33;9.00;99.90
12746;DHT22;6437;53.686;10.030;2023-04-03T10:55:38;8.50;99.90
12746;DHT22;6437;53.686;10.030;2023-04-03T10:57:43;8.60;99.90
12746;DHT22;6437;53.686;10.030;2023-04-03T10:59:49;8.80;99.90
12746;DHT22;6437;53.686;10.030;2023-04-03T11:01:56;9.20;99.90
12746;DHT22;6437;53.686;10.030;2023-04-03T11:04:00;8.80;99.90
12746;DHT22;6437;53.686;10.030;2023-04-03T11:06:08;8.80;99.90
12746;DHT22;6437;53.686;10.030;2023-04-03T11:08:21;8.80;99.90
12746;DHT22;6437;53.686;10.030;2023-04-03T11:10:35;8.80;99.90
12746;DHT22;6437;53.686;10.030;2023-04-03T11:12:41;8.70;99.90
12746;DHT22;6437;53.686;10.030;2023-04-03T11:14:47;9.00;99.90
12746;DHT22;6437;53.686;10.030;2023-04-03T11:16:59;9.00;99.90
12746;DHT22;6437;53.686;10.030;2023-04-03T11:19:05;9.10;99.90
12746;DHT22;6437;53.686;10.030;2023-04-03T11:21:16;9.10;99.90
12746;DHT22;6437;53.686;10.030;2023-04-03T11:23:28;9.10;99.90
12746;DHT22;6437;53.686;10.030;2023-04-03T11:25:33;9.10;99.90
12746;DHT22;6437;53.686;10.030;2023-04-03T11:27:41;9.20;99.90
12746;DHT22;6437;53.686;10.030;2023-04-03T11:29:45;10.40;99.90
12746;DHT22;6437;53.686;10.030;2023-04-03T11:32:13;9.20;99.90
12746;DHT22;6437;53.686;10.030;2023-04-03T11:34:26;9.30;99.90
12746;DHT22;6437;53.686;10.030;2023-04-03T11:36:40;9.20;99.90
12746;DHT22;6437;53.686;10.030;2023-04-03T11:38:45;9.30;99.90
12746;DHT22;6437;53.686;10.030;2023-04-03T11:40:48;9.20;99.90
12746;DHT22;6437;53.686;10.030;2023-04-03T11:42:52;9.20;99.90
12746;DHT22;6437;53.686;10.030;2023-04-03T11:45:17;9.20;99.90
12746;DHT22;6437;53.686;10.030;2023-04-03T11:47:47;9.20;99.90
12746;DHT22;6437;53.686;10.030;2023-04-03T11:49:55;9.90;99.90
12746;DHT22;6437;53.686;10.030;2023-04-03T11:51:59;9.20;99.90
12746;DHT22;6437;53.686;10.030;2023-04-03T11:54:36;9.30;99.90
12746;DHT22;6437;53.686;10.030;2023-04-03T11:56:44;9.10;99.90
12746;DHT22;6437;53.686;10.030;2023-04-03T11:59:23;9.50;99.90
12746;DHT22;6437;53.686;10.030;2023-04-03T12:01:49;9.20;99.90
12746;DHT22;6437;53.686;10.030;2023-04-03T12:04:12;9.20;99.90
12746;DHT22;6437;53.686;10.030;2023-04-03T12:08:57;9.40;99.90
12746;DHT22;6437;53.686;10.030;2023-04-03T12:11:15;9.50;99.90
12746;DHT22;6437;53.686;10.030;2023-04-03T12:13:23;9.60;99.90
12746;DHT22;6437;53.686;10.030;2023-04-03T12:15:50;10.40;99.90
12746;DHT22;6437;53.686;10.030;2023-04-03T12:17:53;9.70;99.90
12746;DHT22;6437;53.686;10.030;2023-04-03T12:19:56;9.70;99.90
12746;DHT22;6437;53.686;10.030;2023-04-03T12:22:10;9.90;99.90
12746;DHT22;6437;53.686;10.030;2023-04-03T12:24:26;9.20;99.90
12746;DHT22;6437;53.686;10.030;2023-04-03T12:26:31;9.70;99.90
12746;DHT22;6437;53.686;10.030;2023-04-03T12:28:39;9.70;99.90
12746;DHT22;6437;53.686;10.030;2023-04-03T12:30:42;9.70;99.90
12746;DHT22;6437;53.686;10.030;2023-04-03T12:32:51;9.80;99.90
12746;DHT22;6437;53.686;10.030;2023-04-03T12:35:03;9.80;99.70
12746;DHT22;6437;53.686;10.030;2023-04-03T12:37:12;9.80;99.90
12746;DHT22;6437;53.686;10.030;2023-04-03T12:39:42;9.70;99.60
12746;DHT22;6437;53.686;10.030;2023-04-03T12:41:55;9.80;99.60
12746;DHT22;6437;53.686;10.030;2023-04-03T12:46:43;9.90;99.70
12746;DHT22;6437;53.686;10.030;2023-04-03T12:48:54;9.90;99.30
12746;DHT22;6437;53.686;10.030;2023-04-03T12:50:59;11.40;98.90
12746;DHT22;6437;53.686;10.030;2023-04-03T12:53:07;10.20;98.30
12746;DHT22;6437;53.686;10.030;2023-04-03T12:55:17;11.20;98.80
12746;DHT22;6437;53.686;10.030;2023-04-03T12:57:22;10.00;98.70
12746;DHT22;6437;53.686;10.030;2023-04-03T12:59:26;10.10;98.90
12746;DHT22;6437;53.686;10.030;2023-04-03T13:01:28;10.60;98.70
12746;DHT22;6437;53.686;10.030;2023-04-03T13:03:30;10.80;98.50
12746;DHT22;6437;53.686;10.030;2023-04-03T13:05:35;10.40;98.20
12746;DHT22;6437;53.686;10.030;2023-04-03T13:07:38;11.10;97.70
12746;DHT22;6437;53.686;10.030;2023-04-03T13:09:44;10.50;98.00
12746;DHT22;6437;53.686;10.030;2023-04-03T13:11:59;9.30;97.40
12746;DHT22;6437;53.686;10.030;2023-04-03T13:14:12;10.60;97.60
12746;DHT22;6437;53.686;10.030;2023-04-03T13:16:18;10.90;97.20
12746;DHT22;6437;53.686;10.030;2023-04-03T13:18:23;12.10;97.40
12746;DHT22;6437;53.686;10.030;2023-04-03T13:20:28;11.00;96.90
12746;DHT22;6437;53.686;10.030;2023-04-03T13:22:33;11.00;96.90
12746;DHT22;6437;53.686;10.030;2023-04-03T13:24:40;11.10;96.20
12746;DHT22;6437;53.686;10.030;2023-04-03T13:26:43;11.20;95.70
12746;DHT22;6437;53.686;10.030;2023-04-03T13:28:46;11.30;95.50
12746;DHT22;6437;53.686;10.030;2023-04-03T13:31:02;12.00;95.90
12746;DHT22;6437;53.686;10.030;2023-04-03T13:33:17;11.50;95.70
12746;DHT22;6437;53.686;10.030;2023-04-03T13:35:26;11.70;95.60